Decoded Metar for KIXA ( in ) (IATA:) | Meteo·Mobile Aviation Weather
aviador You're here:

KIXA Decoded Metar

in
Report Time2019-09-23 08:35:00
UTC Time2019-09-23 08:53:30
Flight Rules vfr VFR
Wind220° at 03 kt
W.Decomp.*RWY 20: 2.8 kt HW 1.0 kt RCW
Visibility9999 m
Phenomena:N/A
Clouds:N/A
CeilingNone
Temp16°C
Dew Point16°C (100% RH)
QNH1018 hPa
Raw Report
METAR KIXA 230835Z AUTO 22003KT 10SM CLR 16/16 A3007 RMK AO2=

Extra information for KIXA:More info

Social comments